createdAt,value
2019-02-26T00:00:54.602Z,3.20
2019-02-26T00:03:24.122Z,3.00
2019-02-26T00:05:54.849Z,3.20
2019-02-26T00:08:26.733Z,2.73
2019-02-26T00:10:57.061Z,3.70
2019-02-26T00:13:27.169Z,2.97
2019-02-26T00:15:56.565Z,3.27
2019-02-26T00:18:25.749Z,3.00
2019-02-26T00:20:56.821Z,3.80
2019-02-26T00:23:26.282Z,3.30
2019-02-26T00:25:55.983Z,2.90
2019-02-26T00:28:24.761Z,3.33
2019-02-26T00:30:55.062Z,3.47
2019-02-26T00:33:25.097Z,3.40
2019-02-26T00:35:54.968Z,3.40
2019-02-26T00:38:23.779Z,3.80
2019-02-26T00:40:52.632Z,3.57
2019-02-26T00:43:25.326Z,3.00
2019-02-26T00:45:53.448Z,3.03
2019-02-26T00:48:23.184Z,3.60
2019-02-26T00:50:52.661Z,3.30
2019-02-26T00:53:23.577Z,3.00
2019-02-26T00:55:54.302Z,2.73
2019-02-26T00:58:23.567Z,3.40
2019-02-26T01:00:52.441Z,2.87
2019-02-26T01:03:21.253Z,3.40
2019-02-26T01:05:50.118Z,2.90
2019-02-26T01:08:19.858Z,4.10
2019-02-26T01:10:48.893Z,3.10
2019-02-26T01:13:17.745Z,3.17
2019-02-26T01:15:46.532Z,4.20
2019-02-26T01:18:15.308Z,3.50
2019-02-26T01:20:44.169Z,3.70
2019-02-26T01:23:12.976Z,3.40
2019-02-26T01:25:41.769Z,3.20
2019-02-26T01:28:14.057Z,3.87
2019-02-26T01:30:41.830Z,2.73
2019-02-26T01:33:10.746Z,4.30
2019-02-26T01:35:39.755Z,4.17
2019-02-26T01:38:08.711Z,3.40
2019-02-26T01:40:41.516Z,4.30
2019-02-26T01:43:08.597Z,3.73
2019-02-26T01:45:37.473Z,3.70
2019-02-26T01:48:08.761Z,3.00
2019-02-26T01:50:37.954Z,2.80
2019-02-26T01:53:07.403Z,3.30
2019-02-26T01:55:36.563Z,3.67
2019-02-26T01:58:05.353Z,4.10
2019-02-26T02:00:34.156Z,3.60
2019-02-26T02:03:03.800Z,4.93
2019-02-26T02:05:32.702Z,3.70
2019-02-26T02:08:02.028Z,3.50
2019-02-26T02:10:30.888Z,4.20
2019-02-26T02:13:02.444Z,3.23
2019-02-26T02:15:30.447Z,3.13
2019-02-26T02:17:59.949Z,3.10
2019-02-26T02:20:29.801Z,3.37
2019-02-26T02:23:00.476Z,3.67
2019-02-26T02:25:33.167Z,3.60
2019-02-26T02:28:02.143Z,3.17
2019-02-26T02:30:32.621Z,3.27
2019-02-26T02:33:02.171Z,3.53
2019-02-26T02:35:31.366Z,2.73
2019-02-26T02:38:02.859Z,2.53
2019-02-26T02:40:30.707Z,3.90
2019-02-26T02:43:03.967Z,3.70
2019-02-26T02:45:30.136Z,2.80
2019-02-26T02:48:00.733Z,2.80
2019-02-26T02:50:29.969Z,3.27
2019-02-26T02:52:59.677Z,3.83
2019-02-26T02:55:29.374Z,3.60
2019-02-26T02:58:00.445Z,4.13
2019-02-26T03:00:49.329Z,2.37
2019-02-26T03:03:38.033Z,4.80
2019-02-26T03:06:09.704Z,3.63
2019-02-26T03:08:39.445Z,3.50
2019-02-26T03:11:09.199Z,4.23
2019-02-26T03:13:40.259Z,4.90
2019-02-26T03:16:08.853Z,4.00
2019-02-26T03:18:37.716Z,3.43
2019-02-26T03:21:06.520Z,3.17
2019-02-26T03:23:37.996Z,3.63
2019-02-26T03:26:09.985Z,3.40
2019-02-26T03:28:37.539Z,3.90
2019-02-26T03:31:07.507Z,4.10
2019-02-26T03:33:36.309Z,3.90
2019-02-26T03:36:07.616Z,3.97
2019-02-26T03:38:35.973Z,3.70
2019-02-26T03:41:05.133Z,4.10
2019-02-26T03:43:34.725Z,4.33
2019-02-26T03:46:04.418Z,3.60
2019-02-26T03:48:33.196Z,3.43
2019-02-26T03:51:01.985Z,3.20
2019-02-26T03:53:33.658Z,3.57
2019-02-26T03:56:04.232Z,4.10
2019-02-26T03:58:32.228Z,3.80
2019-02-26T04:01:04.529Z,4.10
2019-02-26T04:03:32.603Z,3.50
2019-02-26T04:06:03.115Z,3.57
2019-02-26T04:08:33.029Z,3.90
2019-02-26T04:11:02.057Z,4.07
2019-02-26T04:13:30.980Z,3.57
2019-02-26T04:16:03.854Z,5.17
2019-02-26T04:18:34.172Z,3.33
2019-02-26T04:21:05.677Z,5.00
2019-02-26T04:23:33.252Z,3.60
2019-02-26T04:26:29.051Z,2.53
2019-02-26T04:29:25.944Z,3.83
2019-02-26T04:32:23.539Z,4.27
2019-02-26T04:35:50.245Z,3.73
2019-02-26T04:38:39.871Z,3.83
2019-02-26T04:41:44.423Z,3.50
2019-02-26T04:44:34.967Z,3.60
2019-02-26T04:47:33.798Z,6.10
2019-02-26T04:50:03.874Z,4.47
2019-02-26T04:52:35.168Z,4.37
2019-02-26T04:55:03.205Z,4.17
2019-02-26T04:57:32.136Z,4.40
2019-02-26T05:00:02.422Z,2.97
2019-02-26T05:02:31.927Z,3.37
2019-02-26T05:05:00.779Z,3.47
2019-02-26T05:07:29.640Z,3.60
2019-02-26T05:09:59.384Z,3.50
2019-02-26T05:12:31.617Z,3.97
2019-02-26T05:14:59.785Z,2.70
2019-02-26T05:17:30.803Z,3.17
2019-02-26T05:19:59.433Z,3.47
2019-02-26T05:22:31.011Z,3.07
2019-02-26T05:24:59.397Z,4.27
2019-02-26T05:27:28.580Z,3.00
2019-02-26T05:29:57.344Z,3.10
2019-02-26T05:32:27.709Z,3.53
2019-02-26T05:34:56.630Z,5.27
2019-02-26T05:37:28.551Z,5.50
2019-02-26T05:39:56.240Z,3.63
2019-02-26T05:42:25.093Z,3.87
2019-02-26T05:44:56.616Z,3.97
2019-02-26T05:47:26.562Z,4.07
2019-02-26T05:49:54.953Z,4.03
2019-02-26T05:52:24.503Z,3.80
2019-02-26T05:54:54.250Z,3.73
2019-02-26T05:57:27.766Z,4.40
2019-02-26T05:59:53.865Z,4.77
2019-02-26T06:02:24.637Z,9.30
2019-02-26T06:04:53.808Z,7.60
2019-02-26T06:07:25.091Z,7.80
2019-02-26T06:09:56.142Z,6.07
2019-02-26T06:12:23.944Z,3.77
2019-02-26T06:14:54.024Z,3.80
2019-02-26T06:17:23.713Z,4.57
2019-02-26T06:19:53.828Z,4.63
2019-02-26T06:22:26.052Z,4.37
2019-02-26T06:24:57.287Z,4.27
2019-02-26T06:27:25.132Z,3.43
2019-02-26T06:29:55.500Z,4.17
2019-02-26T06:32:30.007Z,3.57
2019-02-26T06:34:56.146Z,3.53
2019-02-26T06:37:25.349Z,4.00
2019-02-26T06:39:55.690Z,3.83
2019-02-26T06:42:24.720Z,4.40
2019-02-26T06:44:53.844Z,3.57
2019-02-26T06:47:25.476Z,3.40
2019-02-26T06:49:53.489Z,4.07
2019-02-26T06:52:22.322Z,4.30
2019-02-26T06:54:57.315Z,4.17
2019-02-26T06:57:21.993Z,4.20
2019-02-26T06:59:51.528Z,3.97
2019-02-26T07:02:21.392Z,3.73
2019-02-26T07:04:50.823Z,3.77
2019-02-26T07:07:20.036Z,4.40
2019-02-26T07:09:49.912Z,3.80
2019-02-26T07:12:20.046Z,3.93
2019-02-26T07:14:51.328Z,3.80
2019-02-26T07:17:20.501Z,6.17
2019-02-26T07:19:51.231Z,4.73
2019-02-26T07:22:20.511Z,3.67
2019-02-26T07:24:52.070Z,4.70
2019-02-26T07:27:20.509Z,3.20
2019-02-26T07:29:52.497Z,3.77
2019-02-26T07:32:22.125Z,3.27
2019-02-26T07:34:52.561Z,3.83
2019-02-26T07:37:21.991Z,4.77
2019-02-26T07:39:51.571Z,3.40
2019-02-26T07:42:21.034Z,3.00
2019-02-26T07:44:50.069Z,3.37
2019-02-26T07:47:18.857Z,3.27
2019-02-26T07:49:48.057Z,4.40
2019-02-26T07:52:16.828Z,3.40
2019-02-26T07:54:47.574Z,3.27
2019-02-26T07:57:18.090Z,3.00
2019-02-26T07:59:48.259Z,3.17
2019-02-26T08:02:18.124Z,4.00
2019-02-26T08:04:47.015Z,3.30
2019-02-26T08:07:15.808Z,3.17
2019-02-26T08:09:44.953Z,3.07
2019-02-26T08:12:14.169Z,4.27
2019-02-26T08:14:45.223Z,3.97
2019-02-26T08:17:14.061Z,3.50
2019-02-26T08:19:46.630Z,3.60
2019-02-26T08:22:13.684Z,3.40
2019-02-26T08:24:42.466Z,4.53
2019-02-26T08:27:13.438Z,4.63
2019-02-26T08:29:42.498Z,4.10
2019-02-26T08:32:13.739Z,3.93
2019-02-26T08:34:42.121Z,3.40
2019-02-26T08:37:11.221Z,3.43
2019-02-26T08:39:40.019Z,3.87
2019-02-26T08:42:10.368Z,4.93
2019-02-26T08:44:39.840Z,4.10
2019-02-26T08:47:11.303Z,3.90
2019-02-26T08:49:40.679Z,3.90
2019-02-26T08:52:09.977Z,3.80
2019-02-26T08:54:38.856Z,4.10
2019-02-26T08:57:07.706Z,4.47
2019-02-26T08:59:37.209Z,5.67
2019-02-26T09:02:06.426Z,5.00
2019-02-26T09:04:37.769Z,4.90
2019-02-26T09:07:05.905Z,3.80
2019-02-26T09:09:35.077Z,5.13
2019-02-26T09:12:03.946Z,3.57
2019-02-26T09:14:37.290Z,4.90
2019-02-26T09:17:04.701Z,4.73
2019-02-26T09:19:35.497Z,4.13
2019-02-26T09:22:04.159Z,4.37
2019-02-26T09:24:33.253Z,4.17
2019-02-26T09:27:04.325Z,3.37
2019-02-26T09:29:34.339Z,4.57
2019-02-26T09:32:06.685Z,4.57
2019-02-26T09:34:34.315Z,4.23
2019-02-26T09:37:05.780Z,5.13
2019-02-26T09:39:36.539Z,4.60
2019-02-26T09:42:06.549Z,4.10
2019-02-26T09:44:36.425Z,4.87
2019-02-26T09:47:07.361Z,3.43
2019-02-26T09:49:36.013Z,4.60
2019-02-26T09:52:06.564Z,4.70
2019-02-26T09:54:40.343Z,3.70
2019-02-26T09:57:06.793Z,4.40
2019-02-26T09:59:36.709Z,4.13
2019-02-26T10:02:06.781Z,4.83
2019-02-26T10:04:36.204Z,4.10
2019-02-26T10:07:08.865Z,4.53
2019-02-26T10:09:37.395Z,5.23
2019-02-26T10:12:07.418Z,6.80
2019-02-26T10:14:38.506Z,5.40
2019-02-26T10:17:09.107Z,3.97
2019-02-26T10:19:38.718Z,4.73
2019-02-26T10:22:12.672Z,4.70
2019-02-26T10:24:40.417Z,4.40
2019-02-26T10:27:11.567Z,5.50
2019-02-26T10:29:43.003Z,5.00
2019-02-26T10:32:11.905Z,5.17
2019-02-26T10:34:41.023Z,5.60
2019-02-26T10:37:09.841Z,5.23
2019-02-26T10:39:38.802Z,5.20
2019-02-26T10:42:07.711Z,4.10
2019-02-26T10:44:36.583Z,4.87
2019-02-26T10:47:08.161Z,4.97
2019-02-26T10:49:36.519Z,6.17
2019-02-26T10:52:05.646Z,4.50
2019-02-26T10:54:39.316Z,5.20
2019-02-26T10:57:07.685Z,5.30
2019-02-26T10:59:36.107Z,4.80
2019-02-26T11:02:05.161Z,4.50
2019-02-26T11:04:35.671Z,5.60
2019-02-26T11:07:08.443Z,4.87
2019-02-26T11:09:35.344Z,6.10
2019-02-26T11:12:07.940Z,4.63
2019-02-26T11:14:36.220Z,5.00
2019-02-26T11:17:05.612Z,5.27
2019-02-26T11:19:38.296Z,4.67
2019-02-26T11:22:05.240Z,5.20
2019-02-26T11:24:36.129Z,5.03
2019-02-26T11:27:06.173Z,4.40
2019-02-26T11:29:36.378Z,5.57
2019-02-26T11:32:07.571Z,5.60
2019-02-26T11:34:38.308Z,4.53
2019-02-26T11:37:08.903Z,4.60
2019-02-26T11:39:38.080Z,4.50
2019-02-26T11:42:07.140Z,5.40
2019-02-26T11:44:36.274Z,5.40
2019-02-26T11:47:05.234Z,4.77
2019-02-26T11:49:36.728Z,4.10
2019-02-26T11:52:05.195Z,4.20
2019-02-26T11:54:37.139Z,4.20
2019-02-26T11:57:08.074Z,4.03
2019-02-26T11:59:38.084Z,3.40
2019-02-26T12:02:07.248Z,3.87
2019-02-26T12:04:36.186Z,3.53
2019-02-26T12:07:07.446Z,4.63
2019-02-26T12:09:38.527Z,3.33
2019-02-26T12:12:09.219Z,3.77
2019-02-26T12:14:40.411Z,4.10
2019-02-26T12:17:08.968Z,3.43
2019-02-26T12:19:38.269Z,4.37
2019-02-26T12:22:07.372Z,3.77
2019-02-26T12:24:36.317Z,3.60
2019-02-26T12:27:07.398Z,4.07
2019-02-26T12:29:36.808Z,3.90
2019-02-26T12:32:05.828Z,3.90
2019-02-26T12:34:35.931Z,3.23
2019-02-26T12:37:06.661Z,3.30
2019-02-26T12:39:36.740Z,3.07
2019-02-26T12:42:07.394Z,2.93
2019-02-26T12:44:39.410Z,3.23
2019-02-26T12:47:07.148Z,3.93
2019-02-26T12:49:38.385Z,2.90
2019-02-26T12:52:06.992Z,3.03
2019-02-26T12:54:37.764Z,2.20
2019-02-26T12:57:06.457Z,2.33
2019-02-26T12:59:35.245Z,2.93
2019-02-26T13:02:05.579Z,2.83
2019-02-26T13:04:37.381Z,3.10
2019-02-26T13:07:08.484Z,2.80
2019-02-26T13:09:41.390Z,2.70
2019-02-26T13:12:06.581Z,2.70
2019-02-26T13:14:35.750Z,2.60
2019-02-26T13:17:04.702Z,3.40
2019-02-26T13:19:36.820Z,2.83
2019-02-26T13:22:06.691Z,3.47
2019-02-26T13:24:34.711Z,2.43
2019-02-26T13:27:03.619Z,2.50
2019-02-26T13:29:32.423Z,2.10
2019-02-26T13:32:01.557Z,2.57
2019-02-26T13:34:30.747Z,2.60
2019-02-26T13:36:59.888Z,2.80
2019-02-26T13:39:36.834Z,2.77
2019-02-26T13:42:04.204Z,2.60
2019-02-26T13:44:30.173Z,2.37
2019-02-26T13:46:59.085Z,2.10
2019-02-26T13:49:27.985Z,2.40
2019-02-26T13:51:56.784Z,2.40
2019-02-26T13:54:25.783Z,2.03
2019-02-26T13:56:54.653Z,2.13
2019-02-26T13:59:23.453Z,2.13
2019-02-26T14:01:52.952Z,2.30
2019-02-26T14:04:22.352Z,2.10
2019-02-26T14:06:51.577Z,2.83
2019-02-26T14:09:20.749Z,2.20
2019-02-26T14:11:49.733Z,2.30
2019-02-26T14:14:18.697Z,3.00
2019-02-26T14:16:47.834Z,1.67
2019-02-26T14:19:16.640Z,2.70
2019-02-26T14:21:45.437Z,2.17
2019-02-26T14:24:14.232Z,2.20
2019-02-26T14:26:43.073Z,2.13
2019-02-26T14:29:12.176Z,2.50
2019-02-26T14:31:41.383Z,2.20
2019-02-26T14:34:11.106Z,2.70
2019-02-26T14:36:39.973Z,2.67
2019-02-26T14:39:09.779Z,2.70
2019-02-26T14:41:38.632Z,2.83
2019-02-26T14:44:07.649Z,2.73
2019-02-26T14:46:36.546Z,2.80
2019-02-26T14:49:06.016Z,2.87
2019-02-26T14:51:35.272Z,2.17
2019-02-26T14:54:06.366Z,2.47
2019-02-26T14:56:35.249Z,2.90
2019-02-26T14:59:04.374Z,2.90
2019-02-26T15:01:33.706Z,2.13
2019-02-26T15:04:02.741Z,2.27
2019-02-26T15:06:32.435Z,4.07
2019-02-26T15:09:01.327Z,3.00
2019-02-26T15:11:30.102Z,2.63
2019-02-26T15:13:58.896Z,2.60
2019-02-26T15:16:28.395Z,2.20
2019-02-26T15:18:57.196Z,2.17
2019-02-26T15:21:25.981Z,2.47
2019-02-26T15:23:54.781Z,2.80
2019-02-26T15:26:23.937Z,2.70
2019-02-26T15:28:52.756Z,2.90
2019-02-26T15:31:22.466Z,2.50
2019-02-26T15:33:51.663Z,2.90
2019-02-26T15:36:20.557Z,3.43
2019-02-26T15:38:49.766Z,2.30
2019-02-26T15:41:18.851Z,2.93
2019-02-26T15:43:47.944Z,2.53
2019-02-26T15:46:16.722Z,2.57
2019-02-26T15:48:45.840Z,2.87
2019-02-26T15:51:17.175Z,2.33
2019-02-26T15:53:47.420Z,2.40
2019-02-26T15:56:16.501Z,3.23
2019-02-26T15:58:45.656Z,2.07
2019-02-26T16:01:15.175Z,2.03
2019-02-26T16:03:44.607Z,2.10
2019-02-26T16:06:13.501Z,2.60
2019-02-26T16:08:43.381Z,2.70
2019-02-26T16:11:13.239Z,2.77
2019-02-26T16:13:42.713Z,2.50
2019-02-26T16:16:11.564Z,2.60
2019-02-26T16:18:40.376Z,2.40
2019-02-26T16:21:09.581Z,2.63
2019-02-26T16:23:38.394Z,2.57
2019-02-26T16:26:08.090Z,1.80
2019-02-26T16:28:38.205Z,2.70
2019-02-26T16:31:07.481Z,2.70
2019-02-26T16:33:36.364Z,3.00
2019-02-26T16:36:05.246Z,3.10
2019-02-26T16:38:34.298Z,2.60
2019-02-26T16:41:04.960Z,2.60
2019-02-26T16:43:33.684Z,3.37
2019-02-26T16:46:02.562Z,5.00
2019-02-26T16:48:31.805Z,7.37
2019-02-26T16:51:00.871Z,3.20
2019-02-26T16:53:33.527Z,2.90
2019-02-26T16:56:00.840Z,2.90
2019-02-26T16:58:29.977Z,2.60
2019-02-26T17:00:59.744Z,2.90
2019-02-26T17:03:28.892Z,2.50
2019-02-26T17:05:57.698Z,3.40
2019-02-26T17:08:26.593Z,2.40
2019-02-26T17:10:55.699Z,2.80
2019-02-26T17:13:24.895Z,2.47
2019-02-26T17:15:54.307Z,2.50
2019-02-26T17:18:23.218Z,2.70
2019-02-26T17:20:52.288Z,2.90
2019-02-26T17:23:21.378Z,2.70
2019-02-26T17:25:50.784Z,3.33
2019-02-26T17:28:19.844Z,3.40
2019-02-26T17:30:48.627Z,4.17
2019-02-26T17:33:17.587Z,4.70
2019-02-26T17:35:46.417Z,4.37
2019-02-26T17:38:15.475Z,4.00
2019-02-26T17:40:45.796Z,5.40
2019-02-26T17:43:14.981Z,4.33
2019-02-26T17:45:43.815Z,4.57
2019-02-26T17:48:12.948Z,3.37
2019-02-26T17:50:43.473Z,3.47
2019-02-26T17:53:12.366Z,4.20
2019-02-26T17:55:41.267Z,4.10
2019-02-26T17:58:10.814Z,3.93
2019-02-26T18:00:41.953Z,4.47
2019-02-26T18:03:11.409Z,3.93
2019-02-26T18:05:50.609Z,4.37
2019-02-26T18:08:11.141Z,3.40
2019-02-26T18:10:40.171Z,3.17
2019-02-26T18:13:09.404Z,2.60
2019-02-26T18:15:38.307Z,3.03
2019-02-26T18:18:07.172Z,3.47
2019-02-26T18:20:35.996Z,3.13
2019-02-26T18:23:05.098Z,4.90
2019-02-26T18:25:33.971Z,3.60
2019-02-26T18:28:02.757Z,5.57
2019-02-26T18:30:31.704Z,3.50
2019-02-26T18:33:00.495Z,3.00
2019-02-26T18:35:29.356Z,3.20
2019-02-26T18:37:58.224Z,3.63
2019-02-26T18:40:28.284Z,4.10
2019-02-26T18:42:57.636Z,4.50
2019-02-26T18:45:28.749Z,4.20
2019-02-26T18:47:58.022Z,4.07
2019-02-26T18:50:28.427Z,3.63
2019-02-26T18:52:58.601Z,4.23
2019-02-26T18:55:28.789Z,3.50
2019-02-26T18:57:58.588Z,6.63
2019-02-26T19:00:27.728Z,7.57
2019-02-26T19:02:57.182Z,5.60
2019-02-26T19:05:26.145Z,4.83
2019-02-26T19:07:55.013Z,3.93
2019-02-26T19:10:23.935Z,4.37
2019-02-26T19:12:53.147Z,4.27
2019-02-26T19:15:22.067Z,5.90
2019-02-26T19:17:52.003Z,4.50
2019-02-26T19:20:23.234Z,4.43
2019-02-26T19:22:52.420Z,3.60
2019-02-26T19:25:22.368Z,4.80
2019-02-26T19:27:53.128Z,3.50
2019-02-26T19:30:22.097Z,3.80
2019-02-26T19:32:51.657Z,4.50
2019-02-26T19:35:20.839Z,4.47
2019-02-26T19:37:52.733Z,4.23
2019-02-26T19:40:24.969Z,3.93
2019-02-26T19:42:54.267Z,5.03
2019-02-26T19:45:23.493Z,4.87
2019-02-26T19:47:55.798Z,4.17
2019-02-26T19:50:23.313Z,4.13
2019-02-26T19:52:56.942Z,5.10
2019-02-26T19:55:26.182Z,5.47
2019-02-26T19:57:55.042Z,5.40
2019-02-26T20:00:24.695Z,5.07
2019-02-26T20:02:54.705Z,3.33
2019-02-26T20:05:24.393Z,5.10
2019-02-26T20:07:54.411Z,5.70
2019-02-26T20:10:23.680Z,3.70
2019-02-26T20:12:54.116Z,4.47
2019-02-26T20:15:23.344Z,4.23
2019-02-26T20:17:52.841Z,4.07
2019-02-26T20:20:21.959Z,4.20
2019-02-26T20:22:51.232Z,4.60
2019-02-26T20:25:20.458Z,5.10
2019-02-26T20:27:49.401Z,5.10
2019-02-26T20:30:19.476Z,3.90
2019-02-26T20:32:48.403Z,4.43
2019-02-26T20:35:18.961Z,4.60
2019-02-26T20:37:47.730Z,4.53
2019-02-26T20:40:18.515Z,5.53
2019-02-26T20:42:47.557Z,4.77
2019-02-26T20:45:18.659Z,4.97
2019-02-26T20:47:48.430Z,4.47
2019-02-26T20:50:21.073Z,4.77
2019-02-26T20:52:48.822Z,4.83
2019-02-26T20:55:19.979Z,4.30
2019-02-26T20:57:48.970Z,4.67
2019-02-26T21:00:18.752Z,4.17
2019-02-26T21:02:47.891Z,4.93
2019-02-26T21:05:17.107Z,3.80
2019-02-26T21:07:46.071Z,4.97
2019-02-26T21:10:16.051Z,4.67
2019-02-26T21:12:45.602Z,4.80
2019-02-26T21:15:16.241Z,5.30
2019-02-26T21:17:45.318Z,5.77
2019-02-26T21:20:14.440Z,5.23
2019-02-26T21:22:43.302Z,6.17
2019-02-26T21:25:12.578Z,4.73
2019-02-26T21:27:42.129Z,4.90
2019-02-26T21:30:13.356Z,4.47
2019-02-26T21:32:42.145Z,3.53
2019-02-26T21:35:11.444Z,4.63
2019-02-26T21:37:40.321Z,5.07
2019-02-26T21:40:09.942Z,3.50
2019-02-26T21:42:38.745Z,3.70
2019-02-26T21:45:09.055Z,4.03
2019-02-26T21:47:38.664Z,4.37
2019-02-26T21:50:08.820Z,4.90
2019-02-26T21:52:41.812Z,4.43
2019-02-26T21:55:08.518Z,4.73
2019-02-26T21:57:37.393Z,5.00
2019-02-26T22:00:08.245Z,5.03
2019-02-26T22:02:37.036Z,5.70
2019-02-26T22:05:08.119Z,4.90
2019-02-26T22:07:37.068Z,5.17
2019-02-26T22:10:07.350Z,4.70
2019-02-26T22:12:36.664Z,5.10
2019-02-26T22:15:09.951Z,4.37
2019-02-26T22:17:37.023Z,4.30
2019-02-26T22:20:09.256Z,4.77
2019-02-26T22:22:37.776Z,5.20
2019-02-26T22:25:09.943Z,4.93
2019-02-26T22:27:37.694Z,4.00
2019-02-26T22:30:08.458Z,4.23
2019-02-26T22:32:38.780Z,5.67
2019-02-26T22:35:08.786Z,4.13
2019-02-26T22:37:38.997Z,5.27
2019-02-26T22:40:09.748Z,11.23
2019-02-26T22:42:38.812Z,14.53
2019-02-26T22:45:09.889Z,6.90
2019-02-26T22:47:40.597Z,4.30
2019-02-26T22:50:10.933Z,3.10
2019-02-26T22:52:40.103Z,4.37
2019-02-26T22:55:09.338Z,4.67
2019-02-26T22:57:38.142Z,3.93
2019-02-26T23:01:07.913Z,5.30
2019-02-26T23:03:37.215Z,3.63
2019-02-26T23:06:06.652Z,3.50
2019-02-26T23:08:35.536Z,4.67
2019-02-26T23:11:04.469Z,3.13
2019-02-26T23:13:33.440Z,3.77
2019-02-26T23:16:03.223Z,3.60
2019-02-26T23:18:32.425Z,5.00
2019-02-26T23:21:01.223Z,4.33
2019-02-26T23:23:30.182Z,4.20
2019-02-26T23:25:59.111Z,5.40
2019-02-26T23:28:27.973Z,3.50
2019-02-26T23:30:59.597Z,4.03
2019-02-26T23:33:27.757Z,4.33
2019-02-26T23:35:56.616Z,3.80
2019-02-26T23:38:25.477Z,4.00
2019-02-26T23:40:54.420Z,3.70
2019-02-26T23:43:23.271Z,5.63
2019-02-26T23:45:52.148Z,4.47
2019-02-26T23:48:21.224Z,3.90
2019-02-26T23:50:50.249Z,3.93
2019-02-26T23:53:19.044Z,4.50
2019-02-26T23:55:47.922Z,3.90
2019-02-26T23:58:17.172Z,3.40
